Time;durP1;ratioP1;P1;durP2;ratioP2;P2;SDS_P1;SDS_P2;PMS_P1;PMS_P2;Temp;Humidity;BMP_temperature;BMP_pressure;BME280_temperature;BME280_humidity;BME280_pressure;Samples;Min_cycle;Max_cycle;Signal;HPM_P1;HPM_P2
2021/08/24 00:01:19;;;;;;;10.65;4.78;;;;;;;14.84;80.46;99811.16;5030218;28;20483;-57
2021/08/24 00:03:44;;;;;;;8.20;4.35;;;;;;;14.84;80.81;99819.00;5035464;28;20037;-58
2021/08/24 00:06:11;;;;;;;10.63;4.03;;;;;;;14.85;80.54;99809.38;5044961;28;20531;-57
2021/08/24 00:08:40;;;;;;;7.88;4.18;;;;;;;14.86;80.68;99816.31;5029937;28;20513;-58
2021/08/24 00:11:08;;;;;;;7.65;4.13;;;;;;;14.90;80.77;99817.84;5038368;28;20100;-59
2021/08/24 00:13:35;;;;;;;7.23;3.60;;;;;;;14.93;80.95;99822.94;5034310;28;20085;-58
2021/08/24 00:16:00;;;;;;;5.28;3.30;;;;;;;14.84;81.08;99812.91;5049668;28;20032;-58
2021/08/24 00:18:26;;;;;;;10.73;4.55;;;;;;;14.93;80.97;99830.78;5034695;28;20045;-58
2021/08/24 00:20:53;;;;;;;7.30;3.92;;;;;;;14.94;81.23;99826.41;5030489;28;20038;-59
2021/08/24 00:23:21;;;;;;;8.45;3.80;;;;;;;14.95;81.19;99822.84;5029368;28;20041;-59
2021/08/24 00:25:48;;;;;;;9.80;4.55;;;;;;;14.96;81.45;99829.78;5030856;28;20046;-59
2021/08/24 00:28:15;;;;;;;9.63;4.20;;;;;;;14.94;81.71;99832.47;5029837;28;20091;-62
2021/08/24 00:30:41;;;;;;;8.48;3.92;;;;;;;14.91;82.21;99832.66;5029632;28;20417;-58
2021/08/24 00:33:08;;;;;;;6.93;3.65;;;;;;;14.90;82.46;99836.19;5030408;28;20512;-58
2021/08/24 00:35:38;;;;;;;9.18;4.13;;;;;;;14.79;82.73;99822.78;5014240;28;20041;-59
2021/08/24 00:38:13;;;;;;;10.50;3.35;;;;;;;14.87;82.81;99838.09;5045104;28;20516;-58
2021/08/24 00:40:39;;;;;;;10.65;4.25;;;;;;;14.85;82.79;99832.94;5028863;28;20139;-58
2021/08/24 00:43:07;;;;;;;8.93;4.18;;;;;;;14.83;82.94;99833.00;5030034;28;20559;-58
2021/08/24 00:45:38;;;;;;;12.32;4.80;;;;;;;14.81;82.91;99832.22;5035524;28;20417;-58
2021/08/24 00:48:05;;;;;;;7.22;4.15;;;;;;;14.82;82.88;99830.47;5017722;28;20112;-59
2021/08/24 00:50:39;;;;;;;11.15;4.50;;;;;;;14.79;83.24;99823.63;5028591;28;20128;-58
2021/08/24 00:53:09;;;;;;;8.68;4.65;;;;;;;14.75;83.46;99826.47;5034192;28;20621;-59
2021/08/24 00:55:38;;;;;;;11.23;4.80;;;;;;;14.72;83.94;99824.00;5048895;28;20044;-58
2021/08/24 00:58:05;;;;;;;;;;;;;;;14.68;84.05;99825.91;5033364;28;20046;-58
2021/08/24 01:00:34;;;;;;;11.90;5.32;;;;;;;14.61;83.74;99821.03;5028284;28;20380;-59
2021/08/24 01:03:09;;;;;;;14.05;5.80;;;;;;;14.62;84.58;99825.34;5034501;28;20417;-58
2021/08/24 01:05:39;;;;;;;13.50;5.80;;;;;;;14.60;84.80;99822.81;5028594;28;20068;-59
2021/08/24 01:08:07;;;;;;;19.42;10.88;;;;;;;14.61;84.89;99826.28;5028166;28;20041;-59
2021/08/24 01:10:46;;;;;;;15.60;8.05;;;;;;;14.61;85.21;99808.81;5047931;28;20064;-58
2021/08/24 01:13:33;;;;;;;21.00;10.05;;;;;;;14.60;85.38;99822.00;5012186;28;20044;-59
2021/08/24 01:16:13;;;;;;;23.30;10.93;;;;;;;14.47;85.37;99806.03;5029694;28;20574;-58
2021/08/24 01:18:59;;;;;;;23.85;11.30;;;;;;;14.53;86.05;99824.03;5028835;28;20045;-58
2021/08/24 01:21:34;;;;;;;19.38;9.93;;;;;;;14.53;86.14;99829.28;5027843;28;20041;-58
2021/08/24 01:24:08;;;;;;;26.02;10.18;;;;;;;14.59;85.76;99825.53;5028327;28;20038;-58
2021/08/24 01:26:34;;;;;;;19.42;9.00;;;;;;;14.70;85.33;99821.47;5029659;28;20037;-58
2021/08/24 01:29:19;;;;;;;18.80;10.07;;;;;;;14.79;84.81;99828.84;5028685;28;20124;-59
2021/08/24 01:32:12;;;;;;;19.05;9.07;;;;;;;14.89;84.53;99828.41;5035250;28;20060;-59
2021/08/24 01:34:41;;;;;;;15.55;7.50;;;;;;;14.88;84.00;99835.41;5030629;28;20037;-58
2021/08/24 01:37:36;;;;;;;13.35;5.72;;;;;;;14.84;84.06;99829.47;5029460;28;20098;-59
2021/08/24 01:40:14;;;;;;;12.73;5.70;;;;;;;14.78;84.14;99827.16;5024320;28;20049;-58
2021/08/24 01:42:41;;;;;;;12.52;5.70;;;;;;;14.59;83.96;99804.59;5029082;28;20068;-59
2021/08/24 01:45:10;;;;;;;12.55;5.78;;;;;;;14.72;84.23;99824.84;5028314;28;20042;-58
2021/08/24 01:47:58;;;;;;;13.07;5.68;;;;;;;14.69;84.59;99825.00;5029236;28;20603;-58
2021/08/24 01:50:29;;;;;;;12.13;6.05;;;;;;;14.63;84.74;99822.69;5028629;28;20132;-58
2021/08/24 01:53:14;;;;;;;12.27;6.00;;;;;;;14.58;85.41;99819.44;5027354;28;20041;-59
2021/08/24 01:55:45;;;;;;;11.38;5.43;;;;;;;14.46;85.66;99806.09;5044124;28;20068;-58
2021/08/24 01:58:15;;;;;;;11.80;5.25;;;;;;;14.47;86.65;99808.63;5040904;28;20044;-58
2021/08/24 02:00:42;;;;;;;;;;;;;;;14.43;86.97;99811.47;5028261;28;20041;-58
2021/08/24 02:03:10;;;;;;;11.80;5.53;;;;;;;14.38;86.86;99803.84;5027383;28;20434;-58
2021/08/24 02:05:43;;;;;;;9.73;4.47;;;;;;;14.34;87.64;99807.50;5029268;28;20068;-58
2021/08/24 02:08:16;;;;;;;11.75;4.78;;;;;;;14.30;87.90;99809.41;5027416;28;20046;-59
2021/08/24 02:10:43;;;;;;;8.07;4.35;;;;;;;14.27;88.44;99806.94;5028120;28;20422;-58
2021/08/24 02:13:11;;;;;;;8.38;4.13;;;;;;;14.25;88.65;99807.94;5030311;28;20037;-58
2021/08/24 02:15:40;;;;;;;9.18;4.97;;;;;;;14.22;89.00;99813.31;5039172;28;20073;-58
2021/08/24 02:18:07;;;;;;;11.43;4.70;;;;;;;14.20;89.37;99808.16;5027789;28;20717;-59
2021/08/24 02:20:42;;;;;;;7.28;4.15;;;;;;;14.17;89.42;99802.22;5029087;28;20045;-58
2021/08/24 02:23:15;;;;;;;6.63;3.80;;;;;;;14.19;89.50;99811.69;5027844;28;20116;-58
2021/08/24 02:25:44;;;;;;;8.27;4.07;;;;;;;14.10;89.41;99798.19;5031317;28;20132;-59
2021/08/24 02:28:16;;;;;;;10.55;4.00;;;;;;;14.17;89.33;99810.06;5028773;28;20411;-58
2021/08/24 02:30:46;;;;;;;;;;;;;;;14.19;89.16;99814.28;5028040;28;20059;-57
2021/08/24 02:33:13;;;;;;;6.55;3.60;;;;;;;14.19;88.52;99814.28;5029145;28;19917;-58
2021/08/24 02:35:44;;;;;;;9.73;4.38;;;;;;;14.20;88.97;99812.53;5027446;28;20041;-58
2021/08/24 02:38:33;;;;;;;10.73;4.10;;;;;;;14.11;89.04;99808.59;5027725;28;20275;-58
2021/08/24 02:41:18;;;;;;;6.85;3.92;;;;;;;14.20;88.94;99820.38;5029029;28;20095;-58
2021/08/24 02:43:50;;;;;;;11.73;5.97;;;;;;;14.16;89.39;99818.81;5037789;28;20059;-58
2021/08/24 02:46:22;;;;;;;14.15;5.45;;;;;;;14.16;89.20;99816.22;5033998;28;20103;-59
2021/08/24 02:48:51;;;;;;;12.65;5.85;;;;;;;14.19;88.97;99816.06;5031204;28;20095;-59
2021/08/24 02:51:18;;;;;;;13.82;6.70;;;;;;;14.20;88.91;99813.38;5031097;28;20052;-59
2021/08/24 02:53:48;;;;;;;10.40;5.70;;;;;;;14.22;89.01;99810.69;5046127;28;20428;-59
2021/08/24 02:56:14;;;;;;;8.98;5.57;;;;;;;14.24;89.29;99821.91;5041091;28;20128;-59
2021/08/24 02:58:40;;;;;;;12.32;5.47;;;;;;;14.26;89.59;99820.09;5032154;28;20128;-58
2021/08/24 03:01:06;;;;;;;18.80;6.55;;;;;;;14.25;89.30;99821.00;5039607;28;20128;-57
2021/08/24 03:03:31;;;;;;;13.90;6.28;;;;;;;14.26;89.40;99827.94;5047030;28;20048;-58
2021/08/24 03:05:59;;;;;;;17.00;7.68;;;;;;;14.29;89.18;99827.78;5032374;28;20072;-58
2021/08/24 03:08:25;;;;;;;14.93;5.88;;;;;;;14.30;88.46;99829.47;5031632;28;20071;-59
2021/08/24 03:10:52;;;;;;;14.20;8.77;;;;;;;14.31;88.01;99821.56;5031554;28;20053;-59
2021/08/24 03:13:47;;;;;;;14.38;6.18;;;;;;;14.31;88.18;99816.34;5032023;28;20128;-59
2021/08/24 03:16:26;;;;;;;14.13;6.40;;;;;;;14.50;87.51;99831.19;5031466;28;20041;-59
2021/08/24 03:19:01;;;;;;;11.43;6.05;;;;;;;14.50;87.21;99815.50;5036794;28;20045;-59
2021/08/24 03:21:30;;;;;;;11.65;5.50;;;;;;;14.64;86.88;99831.38;5030343;28;20038;-59
2021/08/24 03:23:55;;;;;;;9.55;4.20;;;;;;;14.63;85.90;99835.75;5045901;28;20037;-58
2021/08/24 03:26:25;;;;;;;9.00;4.88;;;;;;;14.62;85.88;99835.81;5031775;28;20462;-59
2021/08/24 03:28:51;;;;;;;11.32;4.65;;;;;;;14.64;85.77;99837.47;5029180;28;20044;-58
2021/08/24 03:31:19;;;;;;;9.63;4.30;;;;;;;14.69;85.28;99835.47;5030026;28;20037;-59
2021/08/24 03:33:45;;;;;;;11.63;5.03;;;;;;;14.77;84.86;99845.53;5031599;28;20087;-59
2021/08/24 03:36:12;;;;;;;7.85;4.20;;;;;;;14.81;84.40;99836.66;5030329;28;20042;-58
2021/08/24 03:38:39;;;;;;;9.63;4.20;;;;;;;14.91;84.07;99840.50;5035114;28;20128;-58
2021/08/24 03:41:08;;;;;;;6.88;3.90;;;;;;;14.85;84.19;99822.47;5049868;28;20048;-59
2021/08/24 03:43:34;;;;;;;9.00;4.18;;;;;;;15.02;84.19;99853.06;5051478;28;20048;-58
2021/08/24 03:46:00;;;;;;;7.85;3.58;;;;;;;15.05;83.55;99851.13;5048180;28;20037;-59
2021/08/24 03:48:27;;;;;;;9.25;3.80;;;;;;;15.11;82.93;99863.06;5034874;28;20129;-58
2021/08/24 03:50:53;;;;;;;8.73;3.40;;;;;;;15.15;82.56;99849.75;5030776;28;20175;-60
2021/08/24 03:53:18;;;;;;;7.00;3.75;;;;;;;15.36;81.95;99854.81;5031467;28;20069;-58
2021/08/24 03:55:45;;;;;;;5.28;3.03;;;;;;;15.42;81.55;99842.25;5031046;28;20071;-58
2021/08/24 03:58:12;;;;;;;9.88;3.58;;;;;;;15.52;80.87;99855.75;5030105;28;20541;-59
2021/08/24 04:00:42;;;;;;;9.43;3.40;;;;;;;15.52;80.91;99853.97;5032952;28;20099;-59
2021/08/24 04:03:08;;;;;;;11.65;4.15;;;;;;;15.43;80.91;99856.19;5033442;28;20051;-59
2021/08/24 04:05:33;;;;;;;9.45;3.60;;;;;;;15.38;81.12;99852.97;5045262;28;20046;-59
2021/08/24 04:08:00;;;;;;;7.75;4.50;;;;;;;15.33;81.50;99862.84;5030693;28;20052;-59
2021/08/24 04:10:26;;;;;;;13.50;4.72;;;;;;;15.30;81.78;99860.34;5030162;28;20515;-60
2021/08/24 04:12:52;;;;;;;11.63;4.43;;;;;;;15.33;81.83;99868.94;5028922;28;20033;-59
2021/08/24 04:15:17;;;;;;;7.95;4.18;;;;;;;15.30;82.12;99870.84;5030861;28;20189;-59
2021/08/24 04:17:43;;;;;;;8.85;4.30;;;;;;;15.30;81.95;99870.84;5035061;28;20512;-58
2021/08/24 04:20:12;;;;;;;10.40;4.85;;;;;;;15.33;81.55;99868.94;5032962;28;20420;-59
2021/08/24 04:22:40;;;;;;;11.93;4.60;;;;;;;15.34;81.46;99867.97;5030545;28;20076;-59
2021/08/24 04:25:07;;;;;;;9.05;4.18;;;;;;;15.33;81.40;99866.31;5030063;28;20533;-59
2021/08/24 04:27:33;;;;;;;7.90;4.68;;;;;;;15.39;81.31;99867.75;5033930;28;20115;-59
2021/08/24 04:29:58;;;;;;;8.80;4.03;;;;;;;15.45;81.17;99864.81;5029985;28;20033;-59
2021/08/24 04:32:27;;;;;;;8.25;4.55;;;;;;;15.44;80.46;99860.53;5030412;28;20071;-59
2021/08/24 04:34:53;;;;;;;10.98;4.22;;;;;;;15.52;80.29;99863.63;5028755;28;20136;-59
2021/08/24 04:37:20;;;;;;;14.50;5.50;;;;;;;15.54;80.33;99862.63;5030671;28;20048;-59
2021/08/24 04:39:46;;;;;;;7.60;3.80;;;;;;;15.50;80.29;99860.19;5044968;28;20044;-59
2021/08/24 04:42:12;;;;;;;8.25;4.15;;;;;;;15.41;79.73;99827.44;5048610;28;20064;-58
2021/08/24 04:44:38;;;;;;;9.98;4.55;;;;;;;15.51;79.79;99844.41;5035250;28;20075;-59
2021/08/24 04:47:03;;;;;;;10.50;4.30;;;;;;;15.61;79.65;99853.50;5029128;28;20334;-59
2021/08/24 04:49:29;;;;;;;11.55;5.63;;;;;;;15.67;79.36;99853.19;5031748;28;20049;-58
2021/08/24 04:51:55;;;;;;;9.95;3.90;;;;;;;15.68;79.06;99862.75;5029882;28;20045;-59
2021/08/24 04:54:21;;;;;;;6.53;3.25;;;;;;;15.71;78.48;99855.63;5030161;28;20211;-58
2021/08/24 04:56:46;;;;;;;10.90;3.92;;;;;;;15.74;78.08;99864.19;5028832;28;20041;-59
2021/08/24 04:59:12;;;;;;;8.20;3.60;;;;;;;15.80;77.21;99863.03;5029740;28;20037;-59
2021/08/24 05:01:38;;;;;;;6.55;4.00;;;;;;;15.82;76.82;99866.41;5028941;28;20718;-59
2021/08/24 05:04:04;;;;;;;8.77;4.07;;;;;;;15.85;76.73;99864.47;5041097;28;20558;-58
2021/08/24 05:06:30;;;;;;;12.68;3.83;;;;;;;15.94;76.46;99865.75;5031151;28;20045;-59
2021/08/24 05:08:56;;;;;;;5.32;3.90;;;;;;;15.94;76.19;99864.00;5028907;28;20200;-59
2021/08/24 05:11:22;;;;;;;7.85;3.90;;;;;;;15.92;75.88;99850.09;5029550;28;20243;-59
2021/08/24 05:13:48;;;;;;;9.07;3.97;;;;;;;15.93;75.56;99838.69;5029538;28;20046;-59
2021/08/24 05:16:13;;;;;;;10.48;4.45;;;;;;;16.20;75.18;99859.97;5011552;28;20093;-58
2021/08/24 05:18:39;;;;;;;6.57;3.70;;;;;;;16.35;74.23;99863.50;5049489;28;20068;-59
2021/08/24 05:21:13;;;;;;;12.63;4.10;;;;;;;16.43;73.33;99854.28;5040814;28;20566;-59
2021/08/24 05:23:40;;;;;;;7.50;3.60;;;;;;;16.52;73.25;99860.81;5028037;28;20103;-59
2021/08/24 05:26:13;;;;;;;8.00;3.83;;;;;;;16.73;72.23;99850.91;5029368;28;20122;-59
2021/08/24 05:28:39;;;;;;;7.65;3.90;;;;;;;17.06;71.09;99845.50;5029902;28;20504;-59
2021/08/24 05:31:05;;;;;;;7.63;3.22;;;;;;;17.29;69.38;99848.47;5037247;28;20045;-59
2021/08/24 05:33:31;;;;;;;5.05;2.72;;;;;;;17.50;67.00;99848.97;5042725;28;20060;-59
2021/08/24 05:35:58;;;;;;;5.88;3.08;;;;;;;17.74;66.31;99851.94;5053747;28;20055;-58
2021/08/24 05:38:24;;;;;;;10.85;3.72;;;;;;;17.98;65.44;99847.78;5048273;28;20041;-59
2021/08/24 05:40:50;;;;;;;10.95;3.28;;;;;;;18.17;65.36;99848.31;5031541;28;20071;-60
2021/08/24 05:43:16;;;;;;;11.73;3.03;;;;;;;18.39;65.01;99850.44;5047557;28;20044;-59
2021/08/24 05:45:42;;;;;;;11.25;3.33;;;;;;;18.44;63.14;99848.38;5031270;28;20099;-58
2021/08/24 05:48:08;;;;;;;8.55;3.70;;;;;;;18.32;61.50;99848.31;5036357;28;20040;-59
2021/08/24 05:50:33;;;;;;;11.02;4.45;;;;;;;18.04;62.93;99841.31;5049390;28;20060;-58
2021/08/24 05:53:00;;;;;;;12.23;3.75;;;;;;;17.82;64.21;99843.56;5048022;28;20045;-58
2021/08/24 05:55:26;;;;;;;12.07;3.60;;;;;;;17.68;64.99;99842.63;5036347;28;20547;-59
2021/08/24 05:57:52;;;;;;;12.45;4.05;;;;;;;17.59;65.44;99842.28;5036053;28;20098;-58
2021/08/24 06:00:18;;;;;;;8.02;3.60;;;;;;;17.62;66.00;99847.41;5028136;28;20571;-56
2021/08/24 06:02:44;;;;;;;6.97;3.53;;;;;;;17.69;65.99;99844.31;5029348;28;20069;-58
2021/08/24 06:05:10;;;;;;;7.38;3.47;;;;;;;17.88;65.82;99848.44;5045337;28;20072;-58
2021/08/24 06:07:37;;;;;;;9.02;3.20;;;;;;;17.85;65.21;99851.28;5049198;28;20462;-56
2021/08/24 06:10:03;;;;;;;10.43;3.15;;;;;;;17.95;64.76;99850.59;5039621;28;20128;-58
2021/08/24 06:12:29;;;;;;;7.63;2.88;;;;;;;18.29;63.64;99848.50;5048124;28;20466;-58
2021/08/24 06:14:54;;;;;;;4.22;2.60;;;;;;;18.85;61.22;99852.75;5048596;28;20041;-57
2021/08/24 06:17:20;;;;;;;7.28;2.70;;;;;;;19.55;58.66;99840.16;5037455;28;20089;-58
2021/08/24 06:19:46;;;;;;;4.38;2.28;;;;;;;20.41;55.23;99847.22;5027990;28;20041;-59
2021/08/24 06:22:12;;;;;;;7.95;2.03;;;;;;;21.37;51.86;99827.72;5031579;28;20528;-59
2021/08/24 06:24:38;;;;;;;9.00;2.38;;;;;;;22.20;49.62;99846.78;5039894;28;20041;-59
2021/08/24 06:27:05;;;;;;;7.97;2.88;;;;;;;23.11;47.89;99847.25;5032642;28;20513;-58
2021/08/24 06:29:31;;;;;;;5.07;2.05;;;;;;;23.51;44.86;99841.25;5031942;28;20037;-59
2021/08/24 06:31:59;;;;;;;7.55;2.00;;;;;;;24.46;44.12;99845.31;5035837;28;20120;-59
2021/08/24 06:34:26;;;;;;;2.90;1.52;;;;;;;25.38;40.43;99851.13;5047379;28;20033;-60
2021/08/24 06:36:52;;;;;;;5.40;1.90;;;;;;;26.08;39.12;99850.63;5046294;28;20041;-58
2021/08/24 06:39:19;;;;;;;5.72;1.70;;;;;;;26.60;37.13;99848.25;5051301;28;20043;-59
2021/08/24 06:41:46;;;;;;;4.85;1.60;;;;;;;26.85;36.60;99851.00;5042502;28;20513;-60
2021/08/24 06:44:12;;;;;;;4.70;1.70;;;;;;;27.37;34.93;99852.00;5032470;28;20120;-60
2021/08/24 06:46:39;;;;;;;3.58;1.80;;;;;;;27.73;34.48;99850.13;5030435;28;20128;-57
2021/08/24 06:49:05;;;;;;;2.90;1.95;;;;;;;28.28;33.53;99855.06;5039237;28;20592;-57
2021/08/24 06:51:31;;;;;;;4.03;1.90;;;;;;;28.90;32.53;99851.06;5046159;28;20120;-58
2021/08/24 06:53:57;;;;;;;4.70;2.00;;;;;;;29.21;31.83;99842.34;5051830;28;20132;-60
2021/08/24 06:56:23;;;;;;;5.32;2.42;;;;;;;29.69;30.33;99858.41;5044402;28;20405;-58
2021/08/24 06:58:49;;;;;;;4.28;1.83;;;;;;;29.89;29.87;99849.00;5045561;28;20051;-58
2021/08/24 07:01:22;;;;;;;6.75;2.60;;;;;;;30.38;29.87;99856.88;5041606;28;20767;-59
2021/08/24 07:03:48;;;;;;;3.70;1.70;;;;;;;30.65;28.44;99853.72;5029246;28;20040;-59
2021/08/24 07:06:14;;;;;;;3.80;1.73;;;;;;;30.99;27.88;99855.16;5047343;28;20431;-58
2021/08/24 07:08:40;;;;;;;20.38;14.23;;;;;;;31.37;27.75;99848.81;5046009;28;20040;-58
2021/08/24 07:11:07;;;;;;;2.58;1.73;;;;;;;31.49;26.04;99858.13;5049104;28;20463;-58
2021/08/24 07:13:33;;;;;;;9.38;2.13;;;;;;;32.19;25.81;99849.66;5050429;28;20033;-59
2021/08/24 07:16:00;;;;;;;7.30;1.80;;;;;;;32.98;24.76;99841.66;5048279;28;20037;-56
2021/08/24 07:18:25;;;;;;;4.20;3.05;;;;;;;33.73;24.33;99843.75;5028584;28;20044;-57
2021/08/24 07:20:53;;;;;;;3.03;1.88;;;;;;;34.40;23.43;99852.84;5041722;28;20037;-56
2021/08/24 07:23:19;;;;;;;5.73;2.70;;;;;;;35.17;23.46;99840.78;5044374;28;20060;-56
2021/08/24 07:25:46;;;;;;;3.55;1.70;;;;;;;35.60;21.52;99844.72;5042664;28;20542;-55
2021/08/24 07:28:12;;;;;;;6.15;1.90;;;;;;;34.83;22.21;99842.63;5051133;28;20531;-55
2021/08/24 07:30:40;;;;;;;6.43;1.98;;;;;;;35.40;22.34;99848.47;5044046;28;20132;-49
2021/08/24 07:33:06;;;;;;;8.48;2.05;;;;;;;36.53;20.48;99856.94;5046512;28;20094;-61
2021/08/24 07:35:32;;;;;;;3.05;1.88;;;;;;;35.91;20.12;99857.59;5046572;28;20467;-61
2021/08/24 07:37:58;;;;;;;3.95;1.98;;;;;;;34.62;21.71;99848.16;5046221;28;20056;-61
2021/08/24 07:40:24;;;;;;;2.53;1.98;;;;;;;35.25;20.67;99852.25;5049446;28;20083;-64
2021/08/24 07:42:50;;;;;;;2.35;1.42;;;;;;;33.87;22.17;99840.94;5048664;28;20095;-57
2021/08/24 07:45:16;;;;;;;7.25;1.65;;;;;;;33.37;23.28;99847.44;5045640;28;20039;-56
2021/08/24 07:47:42;;;;;;;2.72;1.92;;;;;;;33.28;22.96;99845.91;5048465;28;20043;-56
2021/08/24 07:50:08;;;;;;;4.22;2.30;;;;;;;34.68;21.85;99843.78;5048040;28;20052;-56
2021/08/24 07:52:34;;;;;;;6.80;2.33;;;;;;;35.48;21.29;99848.28;5048519;28;20029;-57
2021/08/24 07:55:00;;;;;;;4.00;2.45;;;;;;;36.11;20.56;99850.22;5042968;28;20563;-50
2021/08/24 07:57:26;;;;;;;2.65;2.15;;;;;;;34.73;21.30;99857.56;5030962;28;20115;-50
2021/08/24 07:59:52;;;;;;;6.97;2.03;;;;;;;34.24;22.09;99842.41;5036979;28;20049;-58
2021/08/24 08:02:18;;;;;;;2.88;1.83;;;;;;;34.68;21.44;99854.59;5044812;28;20045;-57
2021/08/24 08:04:44;;;;;;;4.45;1.90;;;;;;;33.59;22.44;99840.13;5047915;28;20041;-50
2021/08/24 08:07:10;;;;;;;4.50;2.10;;;;;;;31.96;24.20;99835.47;5034407;28;20119;-58
2021/08/24 08:09:36;;;;;;;4.75;1.65;;;;;;;29.44;27.35;99836.19;5013458;28;20084;-62
2021/08/24 08:12:02;;;;;;;2.30;1.75;;;;;;;28.02;28.99;99839.06;5026064;28;20061;-59
2021/08/24 08:14:29;;;;;;;5.95;2.22;;;;;;;27.38;30.12;99834.97;5030442;28;20856;-52
2021/08/24 08:16:54;;;;;;;4.18;2.05;;;;;;;27.01;30.60;99836.19;5045913;28;20092;-58
2021/08/24 08:19:20;;;;;;;4.18;1.70;;;;;;;26.49;30.66;99826.16;5039496;28;20060;-56
2021/08/24 08:21:46;;;;;;;3.72;1.70;;;;;;;25.90;31.33;99815.09;5030129;28;20114;-53
2021/08/24 08:24:12;;;;;;;4.53;1.80;;;;;;;25.37;32.43;99822.81;5036898;28;20049;-50
2021/08/24 08:26:38;;;;;;;4.65;1.70;;;;;;;24.74;33.81;99830.38;5046619;28;20048;-53
2021/08/24 08:29:09;;;;;;;3.30;1.77;;;;;;;23.97;35.53;99835.50;5043773;28;20033;-55
2021/08/24 08:31:38;;;;;;;4.35;1.55;;;;;;;23.73;36.60;99827.00;5041556;28;20041;-51
2021/08/24 08:34:03;;;;;;;3.10;1.50;;;;;;;23.23;37.64;99838.28;5047530;28;20455;-58
2021/08/24 08:36:29;;;;;;;4.10;1.77;;;;;;;22.77;38.89;99828.00;5046768;28;20091;-52
2021/08/24 08:38:55;;;;;;;3.05;1.63;;;;;;;22.62;39.41;99823.06;5039969;28;20041;-51
2021/08/24 08:41:38;;;;;;;3.20;1.58;;;;;;;22.43;40.20;99831.69;5020145;28;20051;-57
2021/08/24 08:44:17;;;;;;;6.28;1.95;;;;;;;22.28;40.79;99825.00;5036158;28;20041;-55
2021/08/24 08:47:14;;;;;;;2.92;1.35;;;;;;;22.11;41.28;99836.06;5040919;28;20064;-53
2021/08/24 08:49:42;;;;;;;4.80;2.00;;;;;;;22.03;41.66;99827.91;5044459;28;20041;-56
2021/08/24 08:52:35;;;;;;;2.72;1.40;;;;;;;22.11;41.59;99833.44;5043085;28;20584;-57
2021/08/24 08:55:13;;;;;;;3.25;1.50;;;;;;;22.26;41.22;99833.03;5042482;28;20037;-58
2021/08/24 08:58:03;;;;;;;6.07;2.65;;;;;;;22.90;40.71;99838.44;5048223;28;20045;-54
2021/08/24 09:00:39;;;;;;;3.97;2.25;;;;;;;24.44;38.11;99816.19;5049383;28;20059;-54
2021/08/24 09:03:22;;;;;;;4.25;1.95;;;;;;;26.66;34.06;99837.00;5034833;28;20420;-58
2021/08/24 09:05:49;;;;;;;2.75;1.70;;;;;;;28.35;31.72;99831.19;5039863;28;20037;-58
2021/08/24 09:08:19;;;;;;;4.82;2.08;;;;;;;29.34;29.06;99832.88;5046784;28;20128;-57
2021/08/24 09:10:48;;;;;;;5.50;2.42;;;;;;;30.87;28.06;99829.75;5050429;28;20517;-59
2021/08/24 09:13:25;;;;;;;4.13;2.08;;;;;;;31.51;26.37;99831.03;5045191;28;20052;-60
2021/08/24 09:16:22;;;;;;;9.15;3.30;;;;;;;30.68;28.30;99828.38;5049067;28;20067;-60
2021/08/24 09:18:50;;;;;;;5.30;2.35;;;;;;;29.31;31.16;99827.81;5038628;28;20048;-59
2021/08/24 09:21:22;;;;;;;6.22;2.45;;;;;;;28.01;33.53;99807.13;5043565;28;20118;-62
2021/08/24 09:23:47;;;;;;;4.45;2.28;;;;;;;27.46;34.65;99830.69;5048062;28;20122;-58
2021/08/24 09:26:47;;;;;;;6.78;2.78;;;;;;;26.95;35.86;99829.66;5044985;28;20033;-56
2021/08/24 09:29:15;;;;;;;5.20;2.20;;;;;;;26.45;36.64;99818.59;5038529;28;20051;-62
2021/08/24 09:31:42;;;;;;;3.22;1.80;;;;;;;25.79;37.06;99832.13;5044014;28;20048;-61
2021/08/24 09:34:10;;;;;;;10.68;6.53;;;;;;;25.42;37.31;99823.22;5042734;28;20037;-62
2021/08/24 09:36:36;;;;;;;3.92;1.88;;;;;;;25.18;36.34;99826.31;5037059;28;20096;-58
2021/08/24 09:39:02;;;;;;;4.40;2.10;;;;;;;25.04;36.66;99824.09;5043694;28;20041;-60
2021/08/24 09:41:36;;;;;;;2.83;1.83;;;;;;;24.99;36.94;99826.34;5035991;28;20037;-62
2021/08/24 09:44:28;;;;;;;4.60;2.10;;;;;;;24.92;37.36;99819.91;5041230;28;20095;-51
2021/08/24 09:47:03;;;;;;;6.45;3.38;;;;;;;26.33;35.93;99823.31;5045623;28;20483;-60
2021/08/24 09:49:31;;;;;;;2.17;1.38;;;;;;;27.28;34.33;99833.41;5041229;28;20139;-61
2021/08/24 09:52:08;;;;;;;3.63;2.20;;;;;;;27.03;34.24;99827.03;5043069;28;20146;-60
2021/08/24 09:54:55;;;;;;;3.75;2.00;;;;;;;26.70;35.06;99817.84;5033074;28;20798;-61
2021/08/24 09:57:37;;;;;;;3.55;1.55;;;;;;;26.09;35.19;99813.19;5045359;28;20068;-60
2021/08/24 10:00:17;;;;;;;2.05;1.30;;;;;;;26.20;35.07;99825.47;5046191;28;20040;-62
2021/08/24 10:02:45;;;;;;;3.90;2.47;;;;;;;27.08;34.14;99816.72;5048648;28;20041;-61
2021/08/24 10:05:34;;;;;;;4.43;2.15;;;;;;;29.46;30.57;99826.16;5051695;28;20512;-59
2021/08/24 10:08:21;;;;;;;7.82;3.97;;;;;;;31.81;27.43;99826.56;5028343;28;20053;-61
2021/08/24 10:10:59;;;;;;;14.23;5.00;;;;;;;32.95;25.96;99824.03;5033175;28;20199;-60
2021/08/24 10:13:33;;;;;;;;;;;;;;;32.45;26.48;99816.03;5011255;28;20086;-60
2021/08/24 10:16:05;;;;;;;5.47;3.63;;;;;;;31.64;27.43;99817.00;5071310;28;19923;-58
2021/08/24 10:18:33;;;;;;;11.35;4.90;;;;;;;32.55;25.95;99813.88;5050020;28;20049;-58
2021/08/24 10:21:35;;;;;;;8.52;4.93;;;;;;;32.03;26.80;99816.72;5050064;28;20037;-61
2021/08/24 10:24:03;;;;;;;9.27;3.35;;;;;;;30.86;28.27;99809.28;5029437;28;20045;-58
2021/08/24 10:26:32;;;;;;;;;;;;;;;29.97;29.19;99809.78;5032013;28;20037;-57
2021/08/24 10:29:01;;;;;;;10.90;2.60;;;;;;;29.26;29.43;99802.50;5045807;28;19917;-58
2021/08/24 10:31:38;;;;;;;15.63;8.98;;;;;;;28.79;29.66;99800.53;5049377;28;20082;-60
2021/08/24 10:34:10;;;;;;;6.75;2.50;;;;;;;28.03;29.70;99797.97;5052359;28;20389;-55
2021/08/24 10:36:43;;;;;;;5.65;2.55;;;;;;;27.37;30.55;99787.09;5048954;28;20040;-58
2021/08/24 10:39:20;;;;;;;4.97;2.70;;;;;;;27.28;31.25;99809.38;5046835;28;20512;-54
2021/08/24 10:42:08;;;;;;;13.60;6.88;;;;;;;28.15;31.07;99804.72;5049516;28;20132;-58
2021/08/24 10:44:43;;;;;;;;;;;;;;;30.60;28.00;99807.78;5050937;28;20051;-59
2021/08/24 10:47:26;;;;;;;11.00;5.18;;;;;;;32.83;25.07;99804.00;5043474;28;19924;-59
2021/08/24 10:49:54;;;;;;;3.63;2.10;;;;;;;32.86;25.20;99800.94;5049786;28;20041;-58
2021/08/24 10:52:19;;;;;;;;;;;;;;;31.20;26.40;99808.84;5050117;28;20463;-60
2021/08/24 10:55:05;;;;;;;3.58;1.98;;;;;;;29.53;28.19;99804.84;5046895;28;19917;-64
2021/08/24 10:57:45;;;;;;;3.38;2.20;;;;;;;28.54;29.49;99798.78;5045938;28;20433;-60
2021/08/24 11:00:25;;;;;;;4.43;1.77;;;;;;;27.61;30.53;99795.25;5049301;28;20033;-58
2021/08/24 11:03:21;;;;;;;3.90;2.00;;;;;;;26.87;31.40;99792.19;5028387;28;20517;-58
2021/08/24 11:05:50;;;;;;;6.70;3.33;;;;;;;26.59;32.04;99794.06;5039079;28;20045;-61
2021/08/24 11:08:47;;;;;;;5.03;2.80;;;;;;;28.09;30.59;99791.97;5049833;28;20033;-60
2021/08/24 11:11:28;;;;;;;6.53;3.45;;;;;;;30.85;27.69;99791.50;5045952;28;20131;-64
2021/08/24 11:14:24;;;;;;;2.95;1.70;;;;;;;31.38;25.62;99785.16;5049713;28;20123;-63
2021/08/24 11:16:55;;;;;;;4.72;2.08;;;;;;;30.27;26.54;99791.03;5047641;28;20090;-59
2021/08/24 11:19:27;;;;;;;3.63;2.00;;;;;;;29.33;27.99;99795.53;5042532;28;20431;-58
2021/08/24 11:22:01;;;;;;;9.30;3.10;;;;;;;28.98;28.39;99773.44;5043318;28;20094;-60
2021/08/24 11:25:04;;;;;;;4.45;2.53;;;;;;;28.60;28.92;99788.28;5041223;28;20061;-61
2021/08/24 11:27:41;;;;;;;3.97;1.92;;;;;;;28.36;29.08;99785.56;5030491;28;20131;-59
2021/08/24 11:30:18;;;;;;;5.20;2.38;;;;;;;27.63;29.76;99787.09;5029316;28;20041;-62
2021/08/24 11:32:45;;;;;;;10.73;7.53;;;;;;;27.41;30.68;99772.41;5031253;28;20038;-62
2021/08/24 11:35:23;;;;;;;12.35;5.32;;;;;;;27.48;31.04;99778.78;5031001;28;20037;-76
2021/08/24 11:37:55;;;;;;;5.25;2.45;;;;;;;27.49;31.27;99777.78;5083928;28;20044;-63
2021/08/24 11:40:37;;;;;;;7.30;2.72;;;;;;;27.19;30.92;99786.28;5049598;28;20038;-64
2021/08/24 11:43:05;;;;;;;22.67;13.10;;;;;;;26.91;31.03;99783.72;5057767;28;20044;-63
2021/08/24 11:45:50;;;;;;;9.15;3.85;;;;;;;26.61;31.67;99785.94;5047969;28;20089;-63
2021/08/24 11:48:35;;;;;;;6.60;2.38;;;;;;;26.28;31.65;99782.94;5049479;28;20094;-63